createdAt,value
2019-01-23T00:01:01.231Z,35.33
2019-01-23T00:05:06.393Z,33.80
2019-01-23T00:09:11.476Z,34.33
2019-01-23T00:13:16.504Z,33.80
2019-01-23T00:17:21.546Z,36.70
2019-01-23T00:21:26.673Z,31.07
2019-01-23T00:25:31.765Z,34.60
2019-01-23T00:29:37.003Z,34.27
2019-01-23T00:33:41.983Z,34.67
2019-01-23T00:37:47.086Z,30.70
2019-01-23T00:41:52.180Z,31.97
2019-01-23T00:45:57.425Z,37.50
2019-01-23T00:50:02.452Z,31.53
2019-01-23T00:54:07.770Z,30.00
2019-01-23T00:58:12.832Z,32.47
2019-01-23T01:02:17.935Z,32.80
2019-01-23T01:06:23.942Z,34.13
2019-01-23T01:10:29.078Z,34.67
2019-01-23T01:14:34.131Z,31.00
2019-01-23T01:18:40.137Z,30.57
2019-01-23T01:22:45.239Z,31.40
2019-01-23T01:26:50.296Z,30.20
2019-01-23T01:30:55.377Z,29.07
2019-01-23T01:35:00.413Z,32.40
2019-01-23T01:39:08.526Z,32.90
2019-01-23T01:43:13.621Z,31.00
2019-01-23T01:47:18.726Z,30.23
2019-01-23T01:51:24.112Z,34.70
2019-01-23T01:55:29.222Z,29.27
2019-01-23T01:59:34.274Z,30.27
2019-01-23T02:03:39.398Z,30.37
2019-01-23T02:07:44.543Z,30.30
2019-01-23T02:11:50.629Z,28.60
2019-01-23T02:15:55.676Z,31.47
2019-01-23T02:20:00.807Z,31.07
2019-01-23T02:24:05.901Z,31.07
2019-01-23T02:28:11.260Z,26.20
2019-01-23T02:32:16.386Z,29.83
2019-01-23T02:36:21.516Z,29.33
2019-01-23T02:40:26.586Z,30.97
2019-01-23T02:44:31.740Z,28.63
2019-01-23T02:48:38.184Z,28.63
2019-01-23T02:52:43.295Z,31.57
2019-01-23T02:56:48.369Z,29.60
2019-01-23T03:00:53.359Z,30.70
2019-01-23T03:04:59.093Z,28.67
2019-01-23T03:09:05.663Z,30.43
2019-01-23T03:13:10.720Z,32.50
2019-01-23T03:17:16.116Z,31.00
2019-01-23T03:21:21.249Z,27.67
2019-01-23T03:25:26.401Z,30.30
2019-01-23T03:29:31.798Z,35.60
2019-01-23T03:33:36.917Z,34.63
2019-01-23T03:37:42.029Z,37.07
2019-01-23T03:41:47.155Z,35.30
2019-01-23T03:45:52.221Z,34.60
2019-01-23T03:49:57.402Z,37.60
2019-01-23T03:54:02.438Z,35.27
2019-01-23T03:58:07.818Z,35.87
2019-01-23T04:02:12.972Z,35.27
2019-01-23T04:06:18.049Z,34.80
2019-01-23T04:10:23.062Z,34.50
2019-01-23T04:14:28.244Z,36.47
2019-01-23T04:18:33.317Z,34.03
2019-01-23T04:22:38.452Z,35.33
2019-01-23T04:26:43.446Z,35.43
2019-01-23T04:30:48.539Z,34.60
2019-01-23T04:34:53.609Z,32.83
2019-01-23T04:38:58.709Z,33.60
2019-01-23T04:43:03.812Z,34.80
2019-01-23T04:47:09.164Z,37.23
2019-01-23T04:51:35.479Z,36.17
2019-01-23T04:55:41.105Z,35.13
2019-01-23T04:59:46.925Z,35.53
2019-01-23T05:03:52.234Z,34.40
2019-01-23T05:07:57.327Z,35.30
2019-01-23T05:12:02.374Z,34.07
2019-01-23T05:16:07.414Z,33.23
2019-01-23T05:20:12.734Z,35.47
2019-01-23T05:24:17.826Z,35.27
2019-01-23T05:28:22.865Z,33.63
2019-01-23T05:32:27.891Z,33.50
2019-01-23T05:36:32.938Z,34.27
2019-01-23T05:40:38.218Z,34.07
2019-01-23T05:44:43.273Z,34.67
2019-01-23T05:48:48.346Z,34.33
2019-01-23T05:52:54.807Z,34.77
2019-01-23T05:56:59.748Z,35.13
2019-01-23T06:01:04.930Z,32.37
2019-01-23T06:05:10.128Z,34.13
2019-01-23T06:09:15.282Z,35.10
2019-01-23T06:13:20.310Z,33.67
2019-01-23T06:17:25.488Z,35.53
2019-01-23T06:21:30.614Z,31.27
2019-01-23T06:25:35.798Z,34.43
2019-01-23T06:29:40.843Z,35.80
2019-01-23T06:33:46.318Z,33.23
2019-01-23T06:37:51.532Z,36.37
2019-01-23T06:41:56.676Z,36.37
2019-01-23T06:46:02.593Z,36.27
2019-01-23T06:50:10.092Z,35.13
2019-01-23T06:54:15.231Z,34.93
2019-01-23T06:58:20.361Z,29.33
2019-01-23T07:02:25.631Z,32.13
2019-01-23T07:06:30.709Z,32.10
2019-01-23T07:10:35.802Z,30.07
2019-01-23T07:14:40.921Z,30.33
2019-01-23T07:18:46.068Z,31.27
2019-01-23T07:22:51.155Z,31.27
2019-01-23T07:26:56.266Z,28.67
2019-01-23T07:31:01.376Z,31.43
2019-01-23T07:35:06.586Z,30.97
2019-01-23T07:39:11.860Z,29.77
2019-01-23T07:43:17.056Z,29.90
2019-01-23T07:47:22.200Z,27.27
2019-01-23T07:51:27.388Z,28.67
2019-01-23T07:55:32.427Z,28.47
2019-01-23T07:59:37.590Z,30.07
2019-01-23T08:03:44.133Z,31.03
2019-01-23T08:07:50.617Z,29.97
2019-01-23T08:11:55.701Z,28.17
2019-01-23T08:16:00.816Z,30.77
2019-01-23T08:20:08.455Z,30.80
2019-01-23T08:24:13.596Z,28.93
2019-01-23T08:28:18.756Z,30.00
2019-01-23T08:32:24.508Z,33.43
2019-01-23T08:36:29.804Z,32.30
2019-01-23T08:40:35.078Z,29.37
2019-01-23T08:44:40.260Z,30.97
2019-01-23T08:48:45.282Z,30.33
2019-01-23T08:52:50.435Z,30.27
2019-01-23T08:56:55.514Z,32.20
2019-01-23T09:01:00.713Z,32.97
2019-01-23T09:05:06.943Z,31.97
2019-01-23T09:09:12.426Z,31.17
2019-01-23T09:13:17.526Z,31.33
2019-01-23T09:17:22.606Z,30.27
2019-01-23T09:21:27.772Z,29.17
2019-01-23T09:25:32.914Z,32.60
2019-01-23T09:29:38.146Z,30.63
2019-01-23T09:34:08.449Z,29.60
2019-01-23T09:38:43.124Z,29.80
2019-01-23T09:43:05.377Z,29.80
2019-01-23T09:47:40.208Z,29.70
2019-01-23T09:52:17.758Z,29.67
2019-01-23T09:56:23.315Z,30.50
2019-01-23T10:00:31.700Z,28.73
2019-01-23T10:04:36.550Z,25.57
2019-01-23T10:08:41.746Z,28.10
2019-01-23T10:12:46.876Z,27.10
2019-01-23T10:16:52.109Z,28.33
2019-01-23T10:20:57.632Z,30.30
2019-01-23T10:25:03.109Z,30.00
2019-01-23T10:29:10.859Z,30.10
2019-01-23T10:33:17.332Z,30.57
2019-01-23T10:37:22.554Z,30.60
2019-01-23T10:41:27.966Z,30.10
2019-01-23T10:45:33.332Z,27.70
2019-01-23T10:49:38.382Z,28.07
2019-01-23T10:53:43.515Z,29.37
2019-01-23T10:57:48.709Z,27.43
2019-01-23T11:01:53.830Z,24.97
2019-01-23T11:05:59.101Z,28.73
2019-01-23T11:10:05.613Z,27.53
2019-01-23T11:14:10.940Z,28.00
2019-01-23T11:18:16.374Z,29.73
2019-01-23T11:22:21.337Z,26.40
2019-01-23T11:26:26.454Z,27.97
2019-01-23T11:30:31.540Z,27.67
2019-01-23T11:34:36.646Z,27.27
2019-01-23T11:38:41.886Z,26.87
2019-01-23T11:42:47.007Z,27.90
2019-01-23T11:46:52.114Z,26.83
2019-01-23T11:50:57.089Z,27.33
2019-01-23T11:55:02.131Z,27.03
2019-01-23T11:59:07.182Z,25.03
2019-01-23T12:03:13.317Z,29.97
2019-01-23T12:07:18.558Z,27.30
2019-01-23T12:11:23.876Z,29.43
2019-01-23T12:15:30.146Z,28.77
2019-01-23T12:19:35.516Z,26.07
2019-01-23T12:23:40.563Z,27.55
2019-01-23T12:27:46.717Z,26.50
2019-01-23T12:31:51.803Z,28.60
2019-01-23T12:35:56.833Z,25.60
2019-01-23T12:40:02.413Z,24.93
2019-01-23T12:44:07.927Z,26.57
2019-01-23T12:48:13.068Z,26.00
2019-01-23T12:52:18.202Z,24.40
2019-01-23T12:56:23.359Z,24.30
2019-01-23T13:00:30.063Z,25.70
2019-01-23T13:04:35.280Z,23.83
2019-01-23T13:08:40.465Z,25.73
2019-01-23T13:12:46.023Z,23.90
2019-01-23T13:16:51.072Z,24.27
2019-01-23T13:20:56.126Z,24.47
2019-01-23T13:25:01.165Z,23.93
2019-01-23T13:29:06.469Z,24.23
2019-01-23T13:33:11.939Z,25.10
2019-01-23T13:37:16.991Z,23.53
2019-01-23T13:41:22.147Z,23.97
2019-01-23T13:45:27.233Z,23.13
2019-01-23T13:49:33.381Z,23.60
2019-01-23T13:53:38.578Z,22.87
2019-01-23T13:57:43.672Z,23.43
2019-01-23T14:01:48.806Z,23.00
2019-01-23T14:05:53.884Z,22.93
2019-01-23T14:09:59.306Z,22.50
2019-01-23T14:14:05.236Z,22.10
2019-01-23T14:18:11.093Z,23.70
2019-01-23T14:22:16.214Z,24.03
2019-01-23T14:26:21.311Z,24.00
2019-01-23T14:30:29.156Z,25.83
2019-01-23T14:34:34.219Z,25.00
2019-01-23T14:38:40.321Z,26.93
2019-01-23T14:42:45.386Z,25.63
2019-01-23T14:46:50.517Z,27.37
2019-01-23T14:50:56.689Z,25.43
2019-01-23T14:55:01.806Z,26.23
2019-01-23T15:03:10.212Z,26.53
2019-01-23T15:07:15.284Z,26.77
2019-01-23T15:11:20.388Z,27.57
2019-01-23T15:15:25.621Z,24.13
2019-01-23T15:19:30.733Z,27.60
2019-01-23T15:23:35.883Z,26.20
2019-01-23T15:27:40.970Z,26.53
2019-01-23T15:36:23.646Z,24.27
2019-01-23T15:40:31.321Z,26.40
2019-01-23T15:44:36.463Z,25.23
2019-01-23T15:48:41.566Z,24.53
2019-01-23T15:52:46.632Z,26.67
2019-01-23T15:56:53.352Z,26.73
2019-01-23T16:00:58.495Z,27.90
2019-01-23T16:05:14.861Z,27.47
2019-01-23T16:13:42.194Z,27.27
2019-01-23T16:18:02.730Z,29.40
2019-01-23T16:22:27.093Z,25.93
2019-01-23T16:35:19.072Z,24.20
2019-01-23T16:44:45.406Z,24.07
2019-01-23T16:48:50.509Z,23.60
2019-01-23T16:52:55.688Z,24.20
2019-01-23T16:57:00.670Z,22.93
2019-01-23T17:01:05.773Z,24.07
2019-01-23T17:09:49.231Z,23.40
2019-01-23T17:13:54.494Z,24.40
2019-01-23T17:17:59.735Z,23.00
2019-01-23T17:22:16.698Z,23.17
2019-01-23T17:26:21.822Z,24.63
2019-01-23T17:30:26.986Z,22.70
2019-01-23T17:34:32.169Z,23.30
2019-01-23T17:43:19.040Z,25.75
2019-01-23T17:51:54.968Z,24.93
2019-01-23T17:56:11.940Z,24.60
2019-01-23T18:04:39.624Z,52.03
2019-01-23T18:08:44.783Z,24.87
2019-01-23T18:12:49.889Z,27.17
2019-01-23T18:17:06.770Z,24.53
2019-01-23T18:21:12.966Z,24.83
2019-01-23T18:25:18.418Z,25.67
2019-01-23T18:29:35.163Z,24.60
2019-01-23T18:33:56.407Z,25.43
2019-01-23T18:38:39.657Z,27.15
2019-01-23T18:43:15.637Z,25.57
2019-01-23T18:47:59.158Z,26.83
2019-01-23T18:52:23.397Z,31.10
2019-01-23T18:56:28.511Z,27.63
2019-01-23T19:00:33.677Z,26.93
2019-01-23T19:04:38.836Z,28.17
2019-01-23T19:08:43.942Z,26.93
2019-01-23T19:12:49.137Z,25.53
2019-01-23T19:16:54.246Z,26.47
2019-01-23T19:21:18.473Z,28.57
2019-01-23T19:25:23.600Z,27.93
2019-01-23T19:29:28.648Z,28.37
2019-01-23T19:33:33.815Z,26.37
2019-01-23T19:41:56.424Z,42.03
2019-01-23T19:46:01.565Z,28.50
2019-01-23T19:50:08.263Z,27.67
2019-01-23T19:54:13.332Z,27.83
2019-01-23T19:58:18.460Z,27.87
2019-01-23T20:06:40.481Z,28.93
2019-01-23T20:15:16.644Z,26.43
2019-01-23T20:19:29.242Z,26.97
2019-01-23T20:23:34.737Z,29.23
2019-01-23T20:27:59.011Z,27.20
2019-01-23T20:32:16.078Z,28.30
2019-01-23T20:36:21.274Z,28.20
2019-01-23T20:40:26.338Z,28.83
2019-01-23T20:44:50.666Z,29.47
2019-01-23T20:48:55.860Z,28.23
2019-01-23T20:53:01.339Z,29.37
2019-01-23T20:57:06.590Z,29.63
2019-01-23T21:01:23.540Z,29.83
2019-01-23T21:05:40.063Z,29.50
2019-01-23T21:09:45.325Z,29.47
2019-01-23T21:13:50.555Z,30.40
2019-01-23T21:18:07.795Z,29.07
2019-01-23T21:22:12.885Z,31.33
2019-01-23T21:31:01.043Z,29.60
2019-01-23T21:35:06.380Z,30.23
2019-01-23T21:39:11.585Z,31.10
2019-01-23T21:43:35.787Z,30.60
2019-01-23T21:47:40.915Z,30.53
2019-01-23T21:51:46.077Z,30.63
2019-01-23T21:55:51.575Z,30.50
2019-01-23T21:59:56.670Z,32.83
2019-01-23T22:04:01.731Z,30.90
2019-01-23T22:12:56.724Z,32.20
2019-01-23T22:26:07.670Z,32.80
2019-01-23T22:30:21.121Z,33.03
2019-01-23T22:34:26.211Z,32.00
2019-01-23T22:38:31.277Z,32.87
2019-01-23T22:42:36.381Z,32.00
2019-01-23T22:46:41.539Z,33.47
2019-01-23T22:51:05.706Z,32.33
2019-01-23T22:55:11.265Z,33.17
2019-01-23T22:59:16.306Z,33.07
2019-01-23T23:03:21.932Z,32.33
2019-01-23T23:07:26.988Z,32.20
2019-01-23T23:20:31.472Z,30.88
2019-01-23T23:24:55.612Z,29.53
2019-01-23T23:33:17.949Z,34.33
2019-01-23T23:41:39.837Z,32.23
2019-01-23T23:45:44.898Z,33.07
2019-01-23T23:49:50.158Z,32.53
2019-01-23T23:58:24.916Z,33.37
